Time;durP1;ratioP1;P1;durP2;ratioP2;P2;SDS_P1;SDS_P2;PMS_P1;PMS_P2;Temp;Humidity;BMP_temperature;BMP_pressure;BME280_temperature;BME280_humidity;BME280_pressure;Samples;Min_cycle;Max_cycle;Signal;HPM_P1;HPM_P2
2022/06/19 00:04:25;;;;;;;9.75;2.90;;;;;;;24.15;54.34;100466.47;5251760;55;1141053;-71
2022/06/19 00:09:31;;;;;;;6.05;3.25;;;;;;;24.03;54.77;100458.69;5247216;55;1138996;-72
2022/06/19 00:14:37;;;;;;;4.53;3.02;;;;;;;23.93;55.34;100453.70;5218504;56;1138888;-72
2022/06/19 00:19:43;;;;;;;5.75;2.75;;;;;;;24.03;55.74;100460.87;5218539;56;1138985;-72
2022/06/19 00:24:48;;;;;;;2.92;2.60;;;;;;;24.03;55.70;100458.69;5218071;55;1139208;-72
2022/06/19 00:29:55;;;;;;;7.60;2.62;;;;;;;23.98;55.53;100460.68;5218640;56;1139241;-72
2022/06/19 00:35:01;;;;;;;4.37;2.45;;;;;;;23.94;55.83;100462.64;5226296;56;1138984;-72
2022/06/19 00:40:10;;;;;;;6.17;3.62;;;;;;;23.88;55.88;100456.70;5251933;55;1139019;-72
2022/06/19 00:45:50;;;;;;;8.53;3.58;;;;;;;23.80;56.23;100461.29;5286786;55;1138943;-72
2022/06/19 00:50:53;;;;;;;11.10;3.47;;;;;;;23.83;56.65;100450.59;5272243;55;1138971;-72
2022/06/19 00:56:01;;;;;;;6.37;3.47;;;;;;;23.85;56.76;100443.09;5218900;56;1141195;-72
2022/06/19 01:01:13;;;;;;;10.88;4.60;;;;;;;23.82;56.79;100440.31;5182611;56;1139353;-73
2022/06/19 01:06:20;;;;;;;8.23;4.10;;;;;;;23.75;56.87;100442.68;5218253;56;1139270;-72
2022/06/19 01:11:30;;;;;;;12.30;5.20;;;;;;;23.68;57.04;100438.61;5236047;56;1137150;-73
2022/06/19 01:16:37;;;;;;;13.85;5.25;;;;;;;23.48;57.16;100435.04;5227328;56;1139005;-73
2022/06/19 01:22:05;;;;;;;12.40;6.17;;;;;;;23.42;57.88;100438.55;5221722;56;1139049;-72
2022/06/19 01:32:22;;;;;;;36.48;13.55;;;;;;;23.15;58.16;100412.84;5023121;58;1139292;-73
2022/06/19 01:37:38;;;;;;;34.40;12.70;;;;;;;23.00;59.05;100413.53;5225949;56;1141210;-72
2022/06/19 01:42:43;;;;;;;23.10;9.80;;;;;;;22.97;59.71;100409.87;5242555;56;1141116;-72
2022/06/19 01:47:48;;;;;;;15.85;6.35;;;;;;;22.82;60.45;100395.72;5242155;56;1138961;-72
2022/06/19 01:52:59;;;;;;;15.25;5.58;;;;;;;22.74;60.87;100392.66;5157940;56;1136958;-73
2022/06/19 01:58:05;;;;;;;15.58;7.35;;;;;;;22.64;60.79;100394.88;5137904;56;1140985;-73
2022/06/19 02:03:37;;;;;;;10.57;5.40;;;;;;;22.37;61.07;100393.91;5073909;57;1141062;-72
2022/06/19 02:08:44;;;;;;;7.97;4.97;;;;;;;22.23;61.79;100383.26;4834782;60;1141291;-72
2022/06/19 02:13:50;;;;;;;6.28;4.10;;;;;;;22.21;62.98;100379.92;4910908;58;1139214;-72
2022/06/19 02:18:56;;;;;;;7.47;4.55;;;;;;;22.20;63.35;100375.05;4901614;59;1139294;-73
2022/06/19 02:24:03;;;;;;;9.38;5.12;;;;;;;22.16;63.33;100368.39;4894967;59;1139073;-72
2022/06/19 02:29:16;;;;;;;21.15;9.08;;;;;;;22.10;63.83;100368.69;4894695;60;1139199;-72
2022/06/19 02:34:28;;;;;;;19.47;8.53;;;;;;;21.92;64.10;100357.54;4895002;60;1141439;-72
2022/06/19 02:39:44;;;;;;;23.83;7.80;;;;;;;21.79;64.15;100331.87;4892773;60;1141635;-72
2022/06/19 02:44:57;;;;;;;22.15;10.05;;;;;;;21.75;64.25;100343.54;5087020;56;1140996;-72
2022/06/19 02:50:04;;;;;;;26.80;10.82;;;;;;;21.75;64.08;100331.42;5178204;56;1143149;-72
2022/06/19 02:55:11;;;;;;;26.55;10.18;;;;;;;21.79;64.42;100329.18;5143132;57;1143076;-72
2022/06/19 03:00:26;;;;;;;26.60;8.23;;;;;;;21.83;64.53;100332.32;5129827;56;1143191;-72
2022/06/19 03:05:33;;;;;;;18.65;5.58;;;;;;;21.81;64.21;100329.82;5142334;56;1141025;-73
2022/06/19 03:10:39;;;;;;;13.53;5.67;;;;;;;21.80;64.25;100332.70;5176325;56;1141611;-71
2022/06/19 03:15:44;;;;;;;13.08;6.22;;;;;;;21.82;64.16;100340.08;5271973;55;1141349;-72
2022/06/19 03:20:50;;;;;;;10.78;4.70;;;;;;;21.71;63.75;100338.22;5317811;55;1141048;-72
2022/06/19 03:25:56;;;;;;;11.18;4.37;;;;;;;21.59;64.21;100326.33;5235744;55;1141020;-72
2022/06/19 03:31:02;;;;;;;13.60;3.05;;;;;;;21.59;64.45;100322.80;5228875;56;1141051;-72
2022/06/19 03:36:08;;;;;;;4.55;3.20;;;;;;;21.61;64.43;100317.55;5228968;56;1141015;-72
2022/06/19 03:41:14;;;;;;;8.70;3.30;;;;;;;21.65;64.56;100309.92;5228831;56;1139231;-71
2022/06/19 03:46:22;;;;;;;9.20;3.70;;;;;;;21.62;64.54;100312.48;5228892;56;1138950;-72
2022/06/19 03:51:28;;;;;;;6.40;3.67;;;;;;;21.65;64.79;100304.55;5208935;56;1139279;-71
2022/06/19 03:56:36;;;;;;;3.55;3.10;;;;;;;21.64;64.87;100292.11;5188908;56;1139131;-72
2022/06/19 04:01:42;;;;;;;8.38;4.05;;;;;;;21.65;64.99;100291.09;5174563;56;1139127;-72
2022/06/19 04:06:48;;;;;;;6.03;2.98;;;;;;;21.70;65.16;100285.41;5157186;56;1139184;-72
2022/06/19 04:11:55;;;;;;;5.10;3.02;;;;;;;21.61;65.29;100280.39;5223924;55;1137143;-72
2022/06/19 04:17:02;;;;;;;6.47;2.25;;;;;;;21.55;65.49;100277.13;5181320;55;1137336;-73
2022/06/19 04:22:08;;;;;;;4.28;2.85;;;;;;;21.58;65.55;100280.77;5175553;56;1137170;-71
2022/06/19 04:27:13;;;;;;;10.72;2.37;;;;;;;21.59;65.98;100277.05;5216082;56;1137039;-72
2022/06/19 04:32:20;;;;;;;13.03;3.67;;;;;;;21.70;66.44;100277.84;5220168;56;1138993;-72
2022/06/19 04:37:26;;;;;;;9.98;4.42;;;;;;;21.75;66.04;100264.13;5158030;56;1138438;-71
2022/06/19 04:42:32;;;;;;;8.00;3.87;;;;;;;21.78;66.36;100258.86;5142370;56;1136914;-72
2022/06/19 04:47:39;;;;;;;6.90;3.33;;;;;;;21.82;66.02;100241.30;5154662;56;1137063;-71
2022/06/19 04:52:45;;;;;;;4.95;2.85;;;;;;;21.87;66.58;100229.91;5138150;56;1137305;-72
2022/06/19 04:57:51;;;;;;;10.60;3.47;;;;;;;21.94;66.82;100226.23;5217232;55;1136922;-71
2022/06/19 05:02:58;;;;;;;7.35;3.90;;;;;;;21.98;66.88;100214.03;5248732;55;1139067;-71
2022/06/19 05:08:04;;;;;;;7.15;3.80;;;;;;;21.99;66.95;100200.06;5194441;55;1136879;-72
2022/06/19 05:13:20;;;;;;;12.10;4.12;;;;;;;22.10;67.41;100191.42;5148732;56;1137029;-72
2022/06/19 05:18:26;;;;;;;4.62;3.12;;;;;;;22.17;67.66;100181.48;5159447;56;1138462;-71
2022/06/19 05:23:35;;;;;;;6.50;3.45;;;;;;;22.36;67.89;100173.98;5197372;56;1137129;-72
2022/06/19 05:28:41;;;;;;;8.90;3.42;;;;;;;22.53;67.42;100170.39;5216679;56;1134820;-72
2022/06/19 05:33:49;;;;;;;12.30;3.06;;;;;;;22.67;67.13;100176.63;5235707;56;1138950;-73
2022/06/19 05:38:54;;;;;;;9.90;3.70;;;;;;;22.84;66.80;100165.78;5146670;57;1141143;-72
2022/06/19 05:44:02;;;;;;;10.37;3.77;;;;;;;23.03;66.70;100150.13;5134885;56;1138969;-72
2022/06/19 05:49:08;;;;;;;12.77;4.13;;;;;;;23.21;66.30;100130.59;5207199;56;1141284;-72
2022/06/19 05:54:14;;;;;;;9.08;3.55;;;;;;;23.34;66.01;100129.73;5212218;56;1140499;-72
2022/06/19 05:59:22;;;;;;;15.60;3.50;;;;;;;23.50;65.85;100127.41;5186694;56;1138993;-72
2022/06/19 06:04:27;;;;;;;10.40;3.87;;;;;;;23.60;65.45;100113.48;5148989;57;1141073;-73
2022/06/19 06:09:33;;;;;;;10.50;3.45;;;;;;;23.74;65.12;100108.33;5103975;57;1141102;-72
2022/06/19 06:14:39;;;;;;;19.00;4.12;;;;;;;23.86;64.73;100101.72;5142410;56;1141105;-72
2022/06/19 06:19:45;;;;;;;10.38;3.42;;;;;;;24.02;64.44;100101.22;5218774;56;1141110;-73
2022/06/19 06:24:51;;;;;;;10.20;4.67;;;;;;;24.16;64.28;100091.16;5242848;56;1141302;-73
2022/06/19 06:29:57;;;;;;;10.98;3.90;;;;;;;24.35;64.07;100068.61;5242924;56;1140521;-72
2022/06/19 06:35:02;;;;;;;8.98;3.52;;;;;;;24.51;63.23;100070.77;5243028;55;1141092;-73
2022/06/19 06:40:22;;;;;;;9.98;3.95;;;;;;;24.72;63.04;100060.09;5242575;55;1138967;-72
2022/06/19 06:45:48;;;;;;;6.90;3.65;;;;;;;24.98;63.05;100054.14;5266474;55;1138950;-72
2022/06/19 06:50:59;;;;;;;7.33;3.62;;;;;;;25.19;60.32;100055.07;5186302;56;1138932;-73
2022/06/19 06:56:05;;;;;;;5.92;3.35;;;;;;;25.32;60.37;100049.50;5156181;57;1139264;-72
2022/06/19 07:01:16;;;;;;;17.05;3.70;;;;;;;25.48;59.46;100042.12;5172532;56;1138969;-74
2022/06/19 07:06:25;;;;;;;6.95;3.30;;;;;;;25.68;58.59;100036.45;5175324;56;1141039;-74
2022/06/19 07:11:38;;;;;;;13.35;3.80;;;;;;;25.85;57.16;100026.63;5177517;56;1138954;-73
2022/06/19 07:16:43;;;;;;;11.38;3.58;;;;;;;25.99;56.71;100015.06;5155498;56;1141002;-71
2022/06/19 07:21:49;;;;;;;5.08;3.05;;;;;;;26.28;57.28;100009.28;5156496;56;1141405;-71
2022/06/19 07:26:55;;;;;;;11.00;3.65;;;;;;;26.54;56.79;99993.97;5156588;56;1139214;-72
2022/06/19 07:32:00;;;;;;;6.50;2.92;;;;;;;26.79;55.29;99993.70;5165216;56;1138996;-72
2022/06/19 07:37:07;;;;;;;8.35;3.47;;;;;;;27.02;55.19;99992.06;5199460;56;1136910;-71
2022/06/19 07:42:13;;;;;;;13.05;4.35;;;;;;;27.33;54.13;99984.02;5159836;56;1137022;-73
2022/06/19 07:52:45;;;;;;;15.38;4.72;;;;;;;27.80;50.72;99982.77;5215137;55;1134824;-71
2022/06/19 07:57:51;;;;;;;12.20;3.30;;;;;;;27.97;50.80;99980.88;5156745;56;1136924;-71
2022/06/19 08:02:57;;;;;;;7.10;3.37;;;;;;;28.20;50.19;100001.70;5156496;56;1136936;-71
2022/06/19 08:08:07;;;;;;;21.62;3.58;;;;;;;28.34;48.90;99992.67;5156493;56;1136939;-72
2022/06/19 08:13:13;;;;;;;11.87;3.53;;;;;;;28.46;49.38;99983.88;5156639;56;1136929;-71
2022/06/19 08:18:19;;;;;;;10.13;3.60;;;;;;;28.60;48.29;99967.48;5156192;56;1136960;-72
2022/06/19 08:23:25;;;;;;;8.58;2.70;;;;;;;28.62;47.83;99969.95;5106164;56;1136920;-72
2022/06/19 08:28:39;;;;;;;9.95;3.42;;;;;;;28.81;48.48;99971.36;5055049;57;1135159;-71
2022/06/19 08:33:38;;;;;;;13.48;4.65;;;;;;;29.00;46.98;99968.63;5054423;58;1134991;-71
2022/06/19 08:38:50;;;;;;;8.78;3.25;;;;;;;29.11;47.74;99952.39;5141259;56;1136897;-72
2022/06/19 08:44:18;;;;;;;11.50;3.20;;;;;;;29.32;46.85;99957.02;5142842;57;1134845;-72
2022/06/19 08:50:11;;;;;;;8.25;3.52;;;;;;;29.51;47.01;99935.16;5143029;56;1134805;-72
2022/06/19 08:55:30;;;;;;;12.17;3.53;;;;;;;29.77;44.95;99918.52;5156005;56;1136855;-72
2022/06/19 09:00:51;;;;;;;13.18;3.92;;;;;;;30.05;45.36;99910.59;5207684;56;1138977;-71
2022/06/19 09:06:16;;;;;;;15.00;3.00;;;;;;;30.40;44.94;99901.27;5219690;56;1139118;-70
2022/06/19 09:11:38;;;;;;;11.48;2.98;;;;;;;30.69;43.00;99896.83;5191587;56;1138978;-71
2022/06/19 09:16:52;;;;;;;9.67;2.87;;;;;;;30.92;41.69;99890.08;5165240;56;1139004;-71
2022/06/19 09:22:17;;;;;;;19.90;3.37;;;;;;;31.15;40.83;99895.66;5162738;56;1136995;-71
2022/06/19 09:27:30;;;;;;;13.10;3.47;;;;;;;31.39;39.83;99894.05;5224131;55;1138992;-72
2022/06/19 09:32:46;;;;;;;19.55;3.60;;;;;;;31.61;40.48;99877.41;5238180;55;1139263;-72
2022/06/19 09:38:02;;;;;;;8.30;3.15;;;;;;;31.84;38.01;99865.13;5227307;55;1138912;-72
2022/06/19 09:43:26;;;;;;;15.43;3.20;;;;;;;32.11;39.13;99859.61;5236356;55;1135050;-72
2022/06/19 09:48:48;;;;;;;20.77;3.55;;;;;;;32.35;36.91;99846.19;5297791;55;1137177;-71
2022/06/19 09:54:10;;;;;;;20.20;3.65;;;;;;;32.43;37.93;99835.20;5263439;55;1136909;-71
2022/06/19 09:59:59;;;;;;;28.02;3.62;;;;;;;32.64;36.71;99831.28;5241332;55;1137029;-71
2022/06/19 10:05:21;;;;;;;9.18;2.67;;;;;;;32.87;36.21;99833.11;5228123;55;1139153;-72
2022/06/19 10:10:35;;;;;;;16.60;3.65;;;;;;;33.05;36.18;99823.69;5240711;55;1137107;-71
2022/06/19 10:15:43;;;;;;;11.97;3.47;;;;;;;33.13;33.93;99797.06;5210341;56;1138942;-71
2022/06/19 10:26:49;;;;;;;21.90;4.10;;;;;;;33.44;35.78;99792.20;5221003;56;1139013;-73
2022/06/19 10:32:13;;;;;;;;;;;;;;;33.76;33.44;99796.30;5247854;55;1139091;-73
2022/06/19 10:38:02;;;;;;;10.60;2.47;;;;;;;33.88;33.54;99784.40;5241376;55;974202;-72
2022/06/19 10:43:31;;;;;;;17.52;3.55;;;;;;;33.93;32.65;99759.63;5258390;55;1137103;-74
2022/06/19 10:48:58;;;;;;;10.18;3.15;;;;;;;34.15;32.86;99748.95;5243618;55;1136893;-76
2022/06/19 10:54:26;;;;;;;17.85;3.10;;;;;;;34.30;31.59;99738.92;5248323;55;1136902;-74
2022/06/19 10:59:32;;;;;;;27.45;3.67;;;;;;;34.42;32.11;99732.44;5244696;55;1137081;-74
2022/06/19 11:04:42;;;;;;;13.65;3.00;;;;;;;34.66;32.64;99720.85;5221577;56;1136901;-75
2022/06/19 11:09:58;;;;;;;13.68;4.03;;;;;;;34.90;30.14;99728.47;5232466;55;1134932;-74
2022/06/19 11:15:09;;;;;;;19.77;4.05;;;;;;;34.96;29.93;99705.85;5251984;55;1139156;-78
2022/06/19 11:20:25;;;;;;;18.60;3.77;;;;;;;35.16;30.42;99712.36;5279740;55;1138925;-77
2022/06/19 11:25:40;;;;;;;12.85;3.15;;;;;;;35.19;28.66;99703.52;5243240;55;1139065;-75
2022/06/19 11:30:51;;;;;;;29.32;5.53;;;;;;;35.29;28.78;99675.64;5252110;55;1138981;-73
2022/06/19 11:36:01;;;;;;;22.25;3.60;;;;;;;35.40;28.75;99684.77;5258444;55;1138839;-76
2022/06/19 11:41:33;;;;;;;17.97;4.70;;;;;;;35.58;28.14;99670.68;5307578;55;1138984;-75
2022/06/19 11:46:53;;;;;;;15.78;4.12;;;;;;;35.75;28.17;99672.27;5242924;55;1139008;-74
2022/06/19 11:52:03;;;;;;;24.82;4.03;;;;;;;35.80;26.57;99662.55;5166070;56;1138336;-75
2022/06/19 11:57:19;;;;;;;17.15;3.60;;;;;;;35.88;27.10;99654.97;5161978;56;1138952;-68
2022/06/19 12:02:40;;;;;;;23.57;3.50;;;;;;;36.00;27.69;99653.06;5141956;57;1138945;-71
2022/06/19 12:07:49;;;;;;;24.47;4.17;;;;;;;36.19;26.60;99641.35;5080742;57;1139212;-68
2022/06/19 12:12:59;;;;;;;19.40;4.55;;;;;;;36.23;26.02;99647.88;5198139;56;1139167;-70
2022/06/19 12:18:21;;;;;;;21.30;4.65;;;;;;;36.25;25.16;99672.36;5189076;56;1138910;-75
2022/06/19 12:23:38;;;;;;;22.75;4.90;;;;;;;36.28;26.32;99649.15;5143879;56;1139113;-73
2022/06/19 12:28:53;;;;;;;25.12;4.33;;;;;;;36.37;24.53;99658.04;5179908;55;1136998;-73
2022/06/19 12:34:21;;;;;;;23.45;4.12;;;;;;;36.34;23.69;99655.38;5184219;56;1136799;-77
2022/06/19 12:39:31;;;;;;;20.32;3.92;;;;;;;36.38;24.91;99642.58;5228543;55;1136909;-75
2022/06/19 12:45:00;;;;;;;23.43;4.77;;;;;;;36.51;24.17;99632.11;5188546;56;1136979;-77
2022/06/19 12:50:38;;;;;;;20.23;3.77;;;;;;;36.58;24.63;99628.90;5223013;56;1134745;-72
2022/06/19 12:56:23;;;;;;;17.25;4.03;;;;;;;36.58;24.89;99626.14;5146767;56;1139395;-74
2022/06/19 13:02:04;;;;;;;19.00;3.42;;;;;;;36.66;25.76;99619.90;5158118;56;1138964;-73
2022/06/19 13:07:41;;;;;;;9.17;2.60;;;;;;;36.74;25.59;99615.59;5226324;56;1138962;-71
2022/06/19 13:13:19;;;;;;;27.73;4.15;;;;;;;36.81;25.53;99611.28;5228933;56;1136996;-71
2022/06/19 13:19:09;;;;;;;18.45;3.98;;;;;;;36.69;25.63;99604.09;5225092;56;1139006;-74
2022/06/19 13:25:03;;;;;;;24.23;4.30;;;;;;;36.85;25.86;99593.52;5228379;56;1137173;-72
2022/06/19 13:30:18;;;;;;;17.75;3.20;;;;;;;36.96;24.86;99564.02;5126835;56;1136782;-72
2022/06/19 13:35:37;;;;;;;27.60;3.62;;;;;;;36.96;24.86;99564.02;5156376;56;1134754;-73
2022/06/19 13:41:02;;;;;;;16.47;3.33;;;;;;;36.94;25.29;99559.95;5219540;56;1139181;-71
2022/06/19 13:46:51;;;;;;;18.65;3.27;;;;;;;36.86;25.13;99549.67;5226648;56;1139024;-71
2022/06/19 13:52:27;;;;;;;17.67;3.00;;;;;;;36.94;24.74;99556.63;5142646;57;1139315;-74
2022/06/19 13:58:13;;;;;;;13.38;3.58;;;;;;;36.98;25.62;99540.24;5183945;56;1138980;-72
2022/06/19 14:09:42;;;;;;;16.27;3.10;;;;;;;37.00;24.91;99525.58;5218448;56;1137005;-73
2022/06/19 14:14:48;;;;;;;27.17;3.97;;;;;;;37.04;25.22;99511.41;5142370;57;1136937;-69
2022/06/19 14:20:13;;;;;;;13.30;3.90;;;;;;;37.19;24.66;99511.02;5142477;57;1137110;-71
2022/06/19 14:25:30;;;;;;;14.50;3.98;;;;;;;37.12;25.12;99502.38;5228347;56;1136893;-73
2022/06/19 14:30:43;;;;;;;14.75;3.30;;;;;;;36.96;24.14;99499.23;5244881;56;21196;-70
2022/06/19 14:36:02;;;;;;;11.75;3.30;;;;;;;36.90;24.74;99492.80;5227236;56;1134908;-70
2022/06/19 14:41:11;;;;;;;22.32;4.53;;;;;;;36.94;24.60;99486.90;5227711;56;1139004;-70
2022/06/19 14:46:27;;;;;;;19.20;4.53;;;;;;;36.92;24.36;99477.56;5227335;56;1139001;-70
2022/06/19 14:52:19;;;;;;;19.07;3.95;;;;;;;36.90;25.19;99467.98;5227975;56;1138994;-70
2022/06/19 14:57:30;;;;;;;14.68;2.70;;;;;;;36.92;24.63;99462.97;5228074;56;1139190;-74
2022/06/19 15:02:59;;;;;;;20.20;3.90;;;;;;;36.96;24.36;99458.45;5225866;56;1139174;-71
2022/06/19 15:08:18;;;;;;;13.80;3.45;;;;;;;37.01;24.59;99454.72;5228204;56;1138533;-71
2022/06/19 15:13:31;;;;;;;17.70;3.45;;;;;;;36.95;24.68;99449.94;5141859;56;1138917;-74
2022/06/19 15:18:38;;;;;;;16.95;3.17;;;;;;;36.90;24.03;99451.45;5167169;56;1138967;-72
2022/06/19 15:23:46;;;;;;;16.95;2.77;;;;;;;36.75;24.06;99454.07;5244695;56;1139081;-72
2022/06/19 15:28:58;;;;;;;9.63;2.85;;;;;;;36.67;23.86;99451.26;5235487;55;1139044;-70
2022/06/19 15:34:25;;;;;;;14.73;2.92;;;;;;;36.59;24.22;99459.16;5197005;55;1136879;-74
2022/06/19 15:39:52;;;;;;;21.40;2.95;;;;;;;36.63;24.20;99465.66;5242828;55;1137042;-74
2022/06/19 15:45:15;;;;;;;13.72;3.65;;;;;;;36.66;24.71;99457.33;5193092;55;1137169;-70
2022/06/19 15:50:31;;;;;;;9.98;2.60;;;;;;;36.66;24.06;99455.95;5202408;56;1137035;-71
2022/06/19 15:55:44;;;;;;;16.30;3.22;;;;;;;36.67;23.95;99454.02;5242398;55;1134807;-74
2022/06/19 16:01:05;;;;;;;15.30;3.12;;;;;;;36.67;24.07;99447.13;5242923;55;1134133;-74
2022/06/19 16:06:19;;;;;;;14.43;2.70;;;;;;;36.58;23.88;99444.31;5242497;55;1138921;-74
2022/06/19 16:11:38;;;;;;;11.10;2.85;;;;;;;36.38;24.00;99426.38;5197721;56;1139274;-72
2022/06/19 16:16:55;;;;;;;15.93;3.03;;;;;;;36.44;23.94;99425.12;5156703;56;1139202;-74
2022/06/19 16:22:08;;;;;;;9.20;2.62;;;;;;;36.39;24.23;99432.70;5156157;56;1138896;-74
2022/06/19 16:27:21;;;;;;;15.13;3.87;;;;;;;36.36;24.02;99431.98;5154838;56;1136913;-77
2022/06/19 16:32:40;;;;;;;10.40;3.17;;;;;;;36.30;23.82;99449.19;5141717;56;1138831;-75
2022/06/19 16:48:46;;;;;;;15.03;3.80;;;;;;;36.14;24.26;99439.66;5148720;56;1139054;-75
2022/06/19 16:53:57;;;;;;;24.70;4.80;;;;;;;36.06;24.18;99434.90;5172355;56;1139061;-78
2022/06/19 16:59:08;;;;;;;30.85;8.58;;;;;;;35.94;24.75;99419.77;5210631;55;1138983;-75
2022/06/19 17:04:15;;;;;;;;;;;;;;;35.84;24.40;99420.59;5226561;55;1139027;-74
2022/06/19 17:09:37;;;;;;;19.40;4.42;;;;;;;35.70;25.21;99412.93;5218575;55;974173;-75
2022/06/19 17:14:51;;;;;;;10.53;3.40;;;;;;;35.49;25.37;99412.02;5224578;55;1135250;-76
2022/06/19 17:20:15;;;;;;;17.10;3.92;;;;;;;35.28;25.34;99397.13;5199196;56;1136947;-77
2022/06/19 17:25:27;;;;;;;11.18;2.67;;;;;;;35.11;26.04;99412.05;5218531;55;1137048;-75
2022/06/19 17:30:43;;;;;;;14.03;4.17;;;;;;;34.93;26.27;99421.22;5215391;56;1136927;-78
2022/06/19 17:35:48;;;;;;;15.48;3.37;;;;;;;34.70;27.05;99439.48;5251785;55;1137098;-76
2022/06/19 17:41:01;;;;;;;28.83;4.25;;;;;;;34.41;28.58;99488.63;5305021;55;1136884;-76
2022/06/19 17:46:26;;;;;;;41.50;5.05;;;;;;;33.50;35.79;99536.58;5304720;55;1135059;-76
2022/06/19 17:51:39;;;;;;;18.82;4.28;;;;;;;32.58;36.08;99574.21;5305015;55;1138944;-75
2022/06/19 17:56:52;;;;;;;21.60;6.45;;;;;;;31.75;36.82;99584.59;5304762;55;1138929;-77
2022/06/19 18:02:02;;;;;;;40.95;13.08;;;;;;;31.15;37.57;99603.34;5304777;55;1139098;-77
2022/06/19 18:07:21;;;;;;;120.13;79.20;;;;;;;30.72;38.24;99616.44;5251887;55;1141053;-76
2022/06/19 18:12:29;;;;;;;131.12;85.97;;;;;;;30.50;38.98;99631.70;5023790;58;1143083;-75
2022/06/19 18:23:00;;;;;;;94.40;66.42;;;;;;;29.70;40.40;99653.51;5045637;58;1144692;-75
2022/06/19 18:28:06;;;;;;;46.28;26.70;;;;;;;29.45;41.57;99699.16;5045754;58;1141329;-75
2022/06/19 18:33:12;;;;;;;53.75;31.62;;;;;;;29.20;43.11;99692.94;5047359;58;1140672;-74
2022/06/19 18:38:17;;;;;;;62.70;37.20;;;;;;;28.92;43.47;99694.63;5023816;58;1141205;-75
2022/06/19 18:43:23;;;;;;;87.72;50.12;;;;;;;28.77;44.25;99698.00;4962582;59;1141144;-73
2022/06/19 18:48:35;;;;;;;73.95;34.03;;;;;;;28.67;44.97;99720.50;5007888;57;1141134;-73
2022/06/19 18:53:37;;;;;;;42.25;19.52;;;;;;;28.62;44.97;99747.65;5090360;57;1141139;-73
2022/06/19 18:58:43;;;;;;;106.67;53.98;;;;;;;28.69;45.12;99736.03;5065920;57;1141070;-75
2022/06/19 19:03:49;;;;;;;152.80;74.77;;;;;;;28.86;45.09;99775.44;5117754;57;1143183;-75
2022/06/19 19:08:58;;;;;;;31.17;13.60;;;;;;;28.82;45.31;99808.33;5041576;57;1143148;-73
2022/06/19 19:30:27;;;;;;;44.83;25.35;;;;;;;28.66;46.65;99807.83;5170142;56;46708;-73
2022/06/19 19:35:37;;;;;;;72.22;43.85;;;;;;;27.13;56.10;99896.19;4857041;60;1137037;-75
2022/06/19 19:40:47;;;;;;;17.30;5.42;;;;;;;26.85;57.70;99869.83;4808190;59;1141024;-73
2022/06/19 19:46:04;;;;;;;38.58;21.40;;;;;;;26.54;60.23;99874.62;4888178;59;1139035;-74
2022/06/19 19:51:11;;;;;;;68.25;47.35;;;;;;;26.14;62.08;99869.08;4844371;61;1141137;-74
2022/06/19 19:56:23;;;;;;;24.18;5.72;;;;;;;25.78;62.94;99859.30;4824438;60;1141223;-74
2022/06/19 20:01:30;;;;;;;84.83;51.48;;;;;;;25.45;66.72;99941.55;4810127;60;1139082;-74
2022/06/19 20:11:59;;;;;;;15.43;4.83;;;;;;;24.98;68.58;99939.98;4981260;58;1139037;-73
2022/06/19 20:17:06;;;;;;;48.73;31.37;;;;;;;24.70;71.09;99969.41;5008714;59;1139102;-73
2022/06/19 20:22:21;;;;;;;32.35;17.07;;;;;;;24.74;70.21;99890.84;4982211;59;1141153;-74
2022/06/19 20:27:31;;;;;;;17.62;5.65;;;;;;;24.88;70.74;99906.68;4916666;59;1141179;-73
2022/06/19 20:32:41;;;;;;;27.98;16.15;;;;;;;24.53;71.20;99922.68;4859207;59;1139055;-74
2022/06/19 20:37:52;;;;;;;25.85;9.95;;;;;;;24.26;71.82;99909.66;4824448;60;1141215;-74
2022/06/19 20:42:57;;;;;;;14.53;6.95;;;;;;;23.95;73.06;99905.12;4852295;60;1139059;-73
2022/06/19 20:48:08;;;;;;;16.23;5.60;;;;;;;23.72;75.15;99945.69;4861796;60;1139150;-73
2022/06/19 20:53:21;;;;;;;20.23;8.18;;;;;;;23.38;76.93;99973.89;4840841;60;1139113;-73
2022/06/19 20:58:26;;;;;;;38.65;23.67;;;;;;;23.34;77.20;99962.41;4844427;59;1137268;-73
2022/06/19 21:03:32;;;;;;;39.48;19.57;;;;;;;23.28;77.75;99926.31;4876711;60;1139110;-73
2022/06/19 21:08:38;;;;;;;123.38;73.50;;;;;;;23.22;78.13;99930.41;4880269;60;1139386;-73
2022/06/19 21:13:45;;;;;;;38.13;18.45;;;;;;;23.26;78.92;99939.19;4880335;59;1141186;-73
2022/06/19 21:18:52;;;;;;;103.72;64.62;;;;;;;23.14;80.39;99962.50;4879973;59;1138636;-73
2022/06/19 21:23:59;;;;;;;70.25;39.78;;;;;;;22.99;80.07;99991.09;4872282;59;1141383;-73
2022/06/19 21:29:09;;;;;;;18.00;10.36;;;;;;;22.95;80.76;100000.63;4937886;59;1139089;-73
2022/06/19 21:34:16;;;;;;;13.40;6.00;;;;;;;22.88;81.51;100003.05;4922377;58;1141209;-73
2022/06/19 21:39:24;;;;;;;14.38;5.33;;;;;;;22.97;81.96;100012.05;4887168;60;1139339;-73
2022/06/19 21:44:30;;;;;;;15.38;6.65;;;;;;;22.97;79.50;100032.27;4908494;58;1139265;-73
2022/06/19 21:49:36;;;;;;;9.98;3.67;;;;;;;22.99;77.85;100047.73;4908283;58;1139095;-73
2022/06/19 21:54:42;;;;;;;12.43;5.00;;;;;;;23.06;77.15;100080.09;4907114;58;1137090;-72
2022/06/19 21:59:48;;;;;;;8.33;4.05;;;;;;;23.06;76.44;100075.53;4908367;58;1139058;-73
2022/06/19 22:04:54;;;;;;;7.90;3.50;;;;;;;22.96;75.74;100060.28;4908309;58;1136968;-73
2022/06/19 22:15:23;;;;;;;9.40;3.52;;;;;;;22.70;75.41;100096.17;4908393;58;1139032;-74
2022/06/19 22:20:29;;;;;;;9.43;3.17;;;;;;;22.56;74.90;100047.86;4908571;59;1138988;-73
2022/06/19 22:25:36;;;;;;;7.23;2.87;;;;;;;22.47;74.49;100036.45;4850382;60;1139123;-73
2022/06/19 22:43:00;;;;;;;7.72;2.52;;;;;;;22.30;74.95;100056.78;5260915;56;46277;-71
2022/06/19 22:48:06;;;;;;;14.38;3.80;;;;;;;21.95;74.62;100054.20;5046938;57;1134928;-72
2022/06/19 22:53:13;;;;;;;9.00;3.02;;;;;;;21.89;74.06;100033.47;5013062;58;1141083;-71
2022/06/19 23:03:46;;;;;;;10.00;3.15;;;;;;;21.75;73.55;100022.36;4972273;59;1139083;-71
2022/06/19 23:08:52;;;;;;;6.83;2.60;;;;;;;21.65;73.27;100024.11;4875713;58;1141196;-72
2022/06/19 23:13:58;;;;;;;14.73;3.27;;;;;;;21.52;73.12;100032.14;4972622;59;1139033;-73
2022/06/19 23:19:07;;;;;;;10.32;3.27;;;;;;;21.40;73.25;100056.59;4987312;58;1141177;-73
2022/06/19 23:24:16;;;;;;;7.53;3.20;;;;;;;21.05;72.84;100071.41;5058732;58;1141019;-71
2022/06/19 23:29:24;;;;;;;12.30;2.60;;;;;;;20.91;73.47;100082.27;4987077;58;1139063;-71
2022/06/19 23:34:29;;;;;;;10.18;2.67;;;;;;;20.72;74.07;100073.03;5016220;58;1141243;-72
2022/06/19 23:39:38;;;;;;;5.12;2.30;;;;;;;20.54;73.98;100090.98;4981719;58;1141147;-72
2022/06/19 23:44:44;;;;;;;10.13;2.58;;;;;;;20.44;73.73;100092.34;5033332;58;1139181;-73
2022/06/19 23:49:51;;;;;;;7.40;2.67;;;;;;;20.34;74.13;100065.24;4998159;58;1141273;-71
2022/06/19 23:54:57;;;;;;;10.30;2.77;;;;;;;20.24;74.77;100080.86;4949545;59;1139018;-71
